createdAt,value
2019-04-03T00:01:08.103Z,-80
2019-04-03T00:03:35.936Z,-79
2019-04-03T00:06:05.490Z,-79
2019-04-03T00:08:34.753Z,-79
2019-04-03T00:11:03.458Z,-79
2019-04-03T00:13:31.203Z,-79
2019-04-03T00:15:58.983Z,-79
2019-04-03T00:18:26.747Z,-80
2019-04-03T00:20:54.514Z,-77
2019-04-03T00:23:22.872Z,-79
2019-04-03T00:25:52.426Z,-78
2019-04-03T00:28:20.698Z,-78
2019-04-03T00:30:52.418Z,-77
2019-04-03T00:33:19.575Z,-79
2019-04-03T00:35:47.298Z,-79
2019-04-03T00:38:15.087Z,-79
2019-04-03T00:40:42.802Z,-80
2019-04-03T00:43:10.551Z,-80
2019-04-03T00:45:38.359Z,-79
2019-04-03T00:48:06.112Z,-79
2019-04-03T00:50:33.835Z,-80
2019-04-03T00:53:01.565Z,-80
2019-04-03T00:55:29.356Z,-80
2019-04-03T00:57:57.155Z,-80
2019-04-03T01:00:26.402Z,-80
2019-04-03T01:02:54.621Z,-79
2019-04-03T01:05:22.328Z,-79
2019-04-03T01:07:50.084Z,-80
2019-04-03T01:10:17.792Z,-80
2019-04-03T01:12:45.578Z,-78
2019-04-03T01:15:13.328Z,-79
2019-04-03T01:17:41.120Z,-79
2019-04-03T01:20:09.148Z,-81
2019-04-03T01:22:37.270Z,-80
2019-04-03T01:25:08.282Z,-80
2019-04-03T01:27:35.351Z,-80
2019-04-03T01:30:04.015Z,-80
2019-04-03T01:32:31.781Z,-79
2019-04-03T01:34:59.492Z,-79
2019-04-03T01:37:27.231Z,-80
2019-04-03T01:39:54.897Z,-80
2019-04-03T01:42:22.880Z,-79
2019-04-03T01:44:50.609Z,-80
2019-04-03T01:47:18.380Z,-81
2019-04-03T01:49:46.190Z,-79
2019-04-03T01:52:13.924Z,-79
2019-04-03T01:54:41.750Z,-79
2019-04-03T01:57:09.513Z,-79
2019-04-03T01:59:37.941Z,-79
2019-04-03T02:02:06.704Z,-80
2019-04-03T02:04:35.552Z,-80
2019-04-03T02:07:03.292Z,-79
2019-04-03T02:09:31.150Z,-82
2019-04-03T02:11:59.063Z,-79
2019-04-03T02:14:26.810Z,-81
2019-04-03T02:16:54.668Z,-79
2019-04-03T02:19:22.624Z,-80
2019-04-03T02:21:51.781Z,-80
2019-04-03T02:24:19.516Z,-79
2019-04-03T02:26:47.209Z,-79
2019-04-03T02:29:14.940Z,-78
2019-04-03T02:31:43.187Z,-80
2019-04-03T02:34:11.113Z,-79
2019-04-03T02:36:39.176Z,-80
2019-04-03T02:39:07.337Z,-80
2019-04-03T02:41:37.974Z,-79
2019-04-03T02:44:05.887Z,-79
2019-04-03T02:46:33.550Z,-79
2019-04-03T02:49:01.441Z,-79
2019-04-03T02:51:29.421Z,-80
2019-04-03T02:53:57.140Z,-79
2019-04-03T02:56:24.968Z,-80
2019-04-03T02:58:53.907Z,-79
2019-04-03T03:01:22.436Z,-80
2019-04-03T03:03:50.674Z,-80
2019-04-03T03:06:18.669Z,-79
2019-04-03T03:08:46.747Z,-79
2019-04-03T03:11:14.710Z,-79
2019-04-03T03:13:44.294Z,-80
2019-04-03T03:16:14.170Z,-80
2019-04-03T03:18:42.074Z,-80
2019-04-03T03:21:12.753Z,-79
2019-04-03T03:23:41.515Z,-79
2019-04-03T03:26:09.877Z,-78
2019-04-03T03:28:38.019Z,-80
2019-04-03T03:31:07.828Z,-79
2019-04-03T03:33:39.572Z,-80
2019-04-03T03:36:07.042Z,-81
2019-04-03T03:38:38.225Z,-79
2019-04-03T03:41:05.049Z,-81
2019-04-03T03:43:37.111Z,-79
2019-04-03T03:46:03.239Z,-78
2019-04-03T03:48:31.800Z,-80
2019-04-03T03:51:02.288Z,-79
2019-04-03T03:53:31.896Z,-81
2019-04-03T03:56:01.372Z,-81
2019-04-03T03:58:29.621Z,-79
2019-04-03T04:00:59.772Z,-79
2019-04-03T04:03:27.647Z,-81
2019-04-03T04:05:56.727Z,-79
2019-04-03T04:08:25.158Z,-80
2019-04-03T04:10:58.130Z,-79
2019-04-03T04:13:23.310Z,-79
2019-04-03T04:15:51.460Z,-80
2019-04-03T04:18:22.923Z,-80
2019-04-03T04:20:49.243Z,-79
2019-04-03T04:23:17.091Z,-80
2019-04-03T04:25:45.336Z,-79
2019-04-03T04:28:13.259Z,-81
2019-04-03T04:30:44.909Z,-81
2019-04-03T04:33:12.669Z,-79
2019-04-03T04:35:40.408Z,-80
2019-04-03T04:38:08.177Z,-80
2019-04-03T04:40:35.923Z,-80
2019-04-03T04:43:04.384Z,-80
2019-04-03T04:45:33.883Z,-80
2019-04-03T04:48:01.782Z,-80
2019-04-03T04:50:29.629Z,-80
2019-04-03T04:52:58.794Z,-79
2019-04-03T04:55:27.022Z,-80
2019-04-03T04:57:54.812Z,-80
2019-04-03T05:00:22.542Z,-80
2019-04-03T05:02:51.148Z,-80
2019-04-03T05:05:19.600Z,-80
2019-04-03T05:07:47.500Z,-80
2019-04-03T05:10:17.582Z,-81
2019-04-03T05:12:45.685Z,-80
2019-04-03T05:15:13.735Z,-80
2019-04-03T05:17:41.680Z,-79
2019-04-03T05:20:14.705Z,-81
2019-04-03T05:22:42.472Z,-80
2019-04-03T05:25:10.392Z,-80
2019-04-03T05:27:38.115Z,-79
2019-04-03T05:30:06.566Z,-79
2019-04-03T05:32:34.498Z,-79
2019-04-03T05:35:02.245Z,-81
2019-04-03T05:37:30.298Z,-80
2019-04-03T05:39:58.045Z,-80
2019-04-03T05:42:26.950Z,-80
2019-04-03T05:44:55.495Z,-80
2019-04-03T05:47:24.645Z,-80
2019-04-03T05:49:55.558Z,-82
2019-04-03T05:52:22.223Z,-79
2019-04-03T05:54:50.054Z,-82
2019-04-03T05:57:17.835Z,-82
2019-04-03T05:59:58.208Z,-79
2019-04-03T06:02:19.802Z,-80
2019-04-03T06:04:44.945Z,-80
2019-04-03T06:07:12.929Z,-80
2019-04-03T06:09:40.743Z,-79
2019-04-03T06:12:09.467Z,-80
2019-04-03T06:14:38.565Z,-80
2019-04-03T06:17:06.551Z,-80
2019-04-03T06:19:39.179Z,-79
2019-04-03T06:22:06.068Z,-79
2019-04-03T06:24:33.906Z,-80
2019-04-03T06:27:01.685Z,-79
2019-04-03T06:29:29.442Z,-81
2019-04-03T06:31:57.885Z,-79
2019-04-03T06:34:26.118Z,-79
2019-04-03T06:36:53.828Z,-79
2019-04-03T06:39:22.890Z,-79
2019-04-03T06:41:51.262Z,-79
2019-04-03T06:44:22.040Z,-79
2019-04-03T06:46:48.738Z,-79
2019-04-03T06:49:17.126Z,-82
2019-04-03T06:51:44.993Z,-79
2019-04-03T06:54:12.744Z,-81
2019-04-03T06:56:41.260Z,-79
2019-04-03T06:59:09.412Z,-78
2019-04-03T07:01:37.320Z,-77
2019-04-03T07:04:06.410Z,-78
2019-04-03T07:06:34.716Z,-78
2019-04-03T07:09:05.458Z,-80
2019-04-03T07:11:33.246Z,-79
2019-04-03T07:14:00.974Z,-80
2019-04-03T07:16:29.196Z,-77
2019-04-03T07:18:57.205Z,-79
2019-04-03T07:21:27.477Z,-79
2019-04-03T07:23:54.505Z,-79
2019-04-03T07:26:22.272Z,-81
2019-04-03T07:28:50.048Z,-80
2019-04-03T07:31:18.032Z,-84
2019-04-03T07:33:45.816Z,-82
2019-04-03T07:36:13.822Z,-84
2019-04-03T07:38:41.597Z,-84
2019-04-03T07:41:09.463Z,-82
2019-04-03T07:43:37.434Z,-82
2019-04-03T07:46:05.337Z,-82
2019-04-03T07:48:33.665Z,-83
2019-04-03T07:51:01.978Z,-82
2019-04-03T07:53:29.847Z,-84
2019-04-03T07:55:57.678Z,-83
2019-04-03T07:58:25.835Z,-84
2019-04-03T08:00:53.705Z,-84
2019-04-03T08:03:21.664Z,-82
2019-04-03T08:05:49.560Z,-83
2019-04-03T08:08:17.427Z,-82
2019-04-03T08:10:49.389Z,-85
2019-04-03T08:13:19.437Z,-81
2019-04-03T08:15:47.067Z,-82
2019-04-03T08:18:14.859Z,-81
2019-04-03T08:20:42.827Z,-81
2019-04-03T08:23:10.659Z,-83
2019-04-03T08:25:38.480Z,-83
2019-04-03T08:28:06.535Z,-82
2019-04-03T08:30:34.612Z,-82
2019-04-03T08:33:14.887Z,-82
2019-04-03T08:35:32.806Z,-82
2019-04-03T08:38:02.060Z,-83
2019-04-03T08:40:29.986Z,-81
2019-04-03T08:43:00.654Z,-82
2019-04-03T08:45:27.671Z,-82
2019-04-03T08:47:55.507Z,-81
2019-04-03T08:50:28.351Z,-81
2019-04-03T08:52:56.694Z,-81
2019-04-03T08:55:27.472Z,-84
2019-04-03T08:57:55.351Z,-82
2019-04-03T09:00:23.359Z,-81
2019-04-03T09:02:51.304Z,-82
2019-04-03T09:05:20.097Z,-83
2019-04-03T09:07:55.279Z,-82
2019-04-03T09:10:18.302Z,-87
2019-04-03T09:12:46.112Z,-83
2019-04-03T09:15:14.150Z,-81
2019-04-03T09:17:41.999Z,-83
2019-04-03T09:20:12.538Z,-82
2019-04-03T09:22:40.087Z,-81
2019-04-03T09:25:08.669Z,-81
2019-04-03T09:27:40.597Z,-82
2019-04-03T09:30:11.938Z,-80
2019-04-03T09:32:39.936Z,-81
2019-04-03T09:35:08.403Z,-82
2019-04-03T09:37:38.032Z,-81
2019-04-03T09:40:06.414Z,-81
2019-04-03T09:42:34.250Z,-82
2019-04-03T09:45:02.213Z,-81
2019-04-03T09:47:31.696Z,-81
2019-04-03T09:49:59.885Z,-82
2019-04-03T09:52:38.372Z,-80
2019-04-03T09:54:59.756Z,-81
2019-04-03T09:57:30.164Z,-82
2019-04-03T09:59:56.982Z,-79
2019-04-03T10:02:24.902Z,-81
2019-04-03T10:04:52.640Z,-81
2019-04-03T10:07:20.748Z,-82
2019-04-03T10:09:48.637Z,-81
2019-04-03T10:12:16.868Z,-80
2019-04-03T10:14:44.983Z,-82
2019-04-03T10:17:12.784Z,-81
2019-04-03T10:19:40.709Z,-83
2019-04-03T10:22:08.673Z,-81
2019-04-03T10:24:36.533Z,-82
2019-04-03T10:27:04.914Z,-82
2019-04-03T10:29:32.781Z,-84
2019-04-03T10:32:08.498Z,-81
2019-04-03T10:34:57.150Z,-81
2019-04-03T10:37:27.229Z,-83
2019-04-03T10:39:55.041Z,-81
2019-04-03T10:42:23.053Z,-82
2019-04-03T10:44:54.492Z,-83
2019-04-03T10:47:25.317Z,-82
2019-04-03T10:49:52.630Z,-82
2019-04-03T10:52:39.164Z,-82
2019-04-03T10:55:08.027Z,-84
2019-04-03T11:10:33.117Z,-83
2019-04-03T11:13:03.576Z,-82
2019-04-03T11:15:36.124Z,-83
2019-04-03T11:21:57.771Z,-83
2019-04-03T11:24:25.628Z,-82
2019-04-03T11:26:53.572Z,-82
2019-04-03T11:29:21.390Z,-82
2019-04-03T11:31:49.211Z,-83
2019-04-03T11:34:18.432Z,-81
2019-04-03T11:36:47.198Z,-85
2019-04-03T11:39:16.250Z,-83
2019-04-03T11:41:44.636Z,-80
2019-04-03T11:44:12.840Z,-79
2019-04-03T11:46:40.625Z,-82
2019-04-03T11:49:08.936Z,-81
2019-04-03T11:51:36.800Z,-80
2019-04-03T11:54:06.872Z,-82
2019-04-03T11:56:34.765Z,-84
2019-04-03T11:59:02.793Z,-82
2019-04-03T12:01:30.910Z,-81
2019-04-03T12:03:58.729Z,-84
2019-04-03T12:06:26.658Z,-81
2019-04-03T12:08:54.597Z,-83
2019-04-03T12:11:22.699Z,-82
2019-04-03T12:13:50.723Z,-81
2019-04-03T12:16:19.716Z,-83
2019-04-03T12:18:48.626Z,-82
2019-04-03T12:21:20.348Z,-82
2019-04-03T12:23:49.651Z,-83
2019-04-03T12:26:21.278Z,-82
2019-04-03T12:28:50.546Z,-82
2019-04-03T12:31:19.206Z,-82
2019-04-03T12:33:54.805Z,-82
2019-04-03T12:36:17.184Z,-82
2019-04-03T12:38:44.970Z,-83
2019-04-03T12:41:12.762Z,-82
2019-04-03T12:43:40.813Z,-87
2019-04-03T12:46:08.908Z,-81
2019-04-03T12:48:36.704Z,-84
2019-04-03T12:51:04.613Z,-83
2019-04-03T12:53:37.856Z,-82
2019-04-03T12:56:05.722Z,-82
2019-04-03T12:58:34.056Z,-81
2019-04-03T13:01:03.521Z,-83
2019-04-03T13:03:31.386Z,-80
2019-04-03T13:05:59.617Z,-81
2019-04-03T13:08:27.586Z,-82
2019-04-03T13:10:55.466Z,-83
2019-04-03T13:13:25.242Z,-81
2019-04-03T13:15:53.163Z,-82
2019-04-03T13:18:21.714Z,-82
2019-04-03T13:20:49.984Z,-82
2019-04-03T13:23:57.600Z,-80
2019-04-03T13:26:25.988Z,-83
2019-04-03T13:28:54.456Z,-81
2019-04-03T13:31:22.351Z,-83
2019-04-03T13:33:50.153Z,-86
2019-04-03T13:36:18.690Z,-81
2019-04-03T13:38:50.422Z,-81
2019-04-03T13:41:17.814Z,-83
2019-04-03T13:43:45.910Z,-81
2019-04-03T13:46:13.752Z,-83
2019-04-03T13:48:48.619Z,-81
2019-04-03T13:51:16.690Z,-84
2019-04-03T13:53:44.513Z,-84
2019-04-03T13:56:12.827Z,-82
2019-04-03T13:58:40.706Z,-82
2019-04-03T14:01:09.535Z,-83
2019-04-03T14:03:37.938Z,-82
2019-04-03T14:06:06.004Z,-83
2019-04-03T14:08:34.175Z,-81
2019-04-03T14:11:02.028Z,-82
2019-04-03T14:13:29.851Z,-83
2019-04-03T14:15:57.950Z,-82
2019-04-03T14:18:26.162Z,-83
2019-04-03T14:20:56.085Z,-82
2019-04-03T14:23:23.711Z,-81
2019-04-03T14:26:03.132Z,-82
2019-04-03T14:28:21.860Z,-82
2019-04-03T14:30:49.711Z,-83
2019-04-03T14:33:19.192Z,-83
2019-04-03T14:35:52.583Z,-84
2019-04-03T14:38:17.035Z,-83
2019-04-03T14:40:45.070Z,-82
2019-04-03T14:43:13.078Z,-84
2019-04-03T14:45:40.943Z,-82
2019-04-03T14:48:09.233Z,-83
2019-04-03T14:50:38.298Z,-84
2019-04-03T14:53:07.275Z,-83
2019-04-03T14:55:45.847Z,-82
2019-04-03T14:58:04.912Z,-82
2019-04-03T15:00:35.894Z,-81
2019-04-03T15:03:04.654Z,-83
2019-04-03T15:05:33.038Z,-81
2019-04-03T15:08:00.909Z,-81
2019-04-03T15:10:30.753Z,-82
2019-04-03T15:12:58.895Z,-82
2019-04-03T15:15:27.585Z,-81
2019-04-03T15:18:12.022Z,-80
2019-04-03T15:20:49.383Z,-83
2019-04-03T15:23:17.945Z,-81
2019-04-03T15:26:53.023Z,-81
2019-04-03T15:29:21.626Z,-83
2019-04-03T15:40:39.810Z,-81
2019-04-03T15:43:20.065Z,-82
2019-04-03T15:50:21.921Z,-83
2019-04-03T15:53:00.461Z,-82
2019-04-03T15:59:46.067Z,-83
2019-04-03T16:02:14.071Z,-82
2019-04-03T16:04:41.967Z,-85
2019-04-03T16:07:13.388Z,-82
2019-04-03T16:10:01.011Z,-80
2019-04-03T16:12:29.226Z,-81
2019-04-03T16:14:57.473Z,-82
2019-04-03T16:17:25.764Z,-81
2019-04-03T16:19:53.611Z,-82
2019-04-03T16:22:21.583Z,-83
2019-04-03T16:24:49.580Z,-81
2019-04-03T16:27:17.421Z,-83
2019-04-03T16:29:45.892Z,-83
2019-04-03T16:32:14.020Z,-81
2019-04-03T16:34:42.733Z,-81
2019-04-03T16:37:10.897Z,-83
2019-04-03T16:39:39.116Z,-84
2019-04-03T16:42:07.277Z,-83
2019-04-03T16:44:35.544Z,-80
2019-04-03T16:49:48.601Z,-72
2019-04-03T16:52:16.456Z,-72
2019-04-03T16:54:45.392Z,-71
2019-04-03T16:57:13.768Z,-73
2019-04-03T16:59:44.304Z,-72
2019-04-03T17:02:13.671Z,-71
2019-04-03T17:04:41.488Z,-74
2019-04-03T17:07:09.800Z,-72
2019-04-03T17:09:39.397Z,-71
2019-04-03T17:12:07.279Z,-71
2019-04-03T17:14:35.392Z,-71
2019-04-03T17:17:03.595Z,-70
2019-04-03T17:19:31.899Z,-71
2019-04-03T17:21:59.704Z,-71
2019-04-03T17:24:40.231Z,-70
2019-04-03T17:26:59.477Z,-70
2019-04-03T17:29:27.792Z,-71
2019-04-03T17:31:58.302Z,-74
2019-04-03T17:34:25.475Z,-71
2019-04-03T17:36:54.086Z,-71
2019-04-03T17:39:22.291Z,-71
2019-04-03T17:41:50.110Z,-72
2019-04-03T17:44:20.025Z,-71
2019-04-03T17:46:49.353Z,-73
2019-04-03T17:49:17.292Z,-71
2019-04-03T17:51:45.057Z,-71
2019-04-03T17:54:13.956Z,-71
2019-04-03T17:56:42.967Z,-71
2019-04-03T17:59:11.599Z,-71
2019-04-03T18:01:39.437Z,-73
2019-04-03T18:04:07.209Z,-72
2019-04-03T18:06:34.986Z,-70
2019-04-03T18:09:06.777Z,-70
2019-04-03T18:11:34.574Z,-69
2019-04-03T18:14:03.527Z,-72
2019-04-03T18:16:31.313Z,-71
2019-04-03T18:18:59.086Z,-73
2019-04-03T18:21:26.840Z,-73
2019-04-03T18:23:54.644Z,-72
2019-04-03T18:26:22.432Z,-71
2019-04-03T18:28:51.291Z,-73
2019-04-03T18:31:19.013Z,-71
2019-04-03T18:33:48.645Z,-70
2019-04-03T18:36:16.515Z,-69
2019-04-03T18:38:44.282Z,-73
2019-04-03T18:41:12.069Z,-71
2019-04-03T18:43:39.832Z,-71
2019-04-03T18:46:07.933Z,-72
2019-04-03T18:48:35.719Z,-73
2019-04-03T18:51:05.653Z,-72
2019-04-03T18:53:33.324Z,-72
2019-04-03T18:56:02.192Z,-73
2019-04-03T18:58:30.007Z,-73
2019-04-03T19:00:57.773Z,-72
2019-04-03T19:03:26.351Z,-73
2019-04-03T19:05:54.162Z,-73
2019-04-03T19:08:22.009Z,-72
2019-04-03T19:11:01.347Z,-72
2019-04-03T19:13:19.444Z,-73
2019-04-03T19:15:47.234Z,-72
2019-04-03T19:18:19.803Z,-72
2019-04-03T19:20:44.700Z,-74
2019-04-03T19:23:12.447Z,-73
2019-04-03T19:25:40.241Z,-73
2019-04-03T19:28:07.996Z,-74
2019-04-03T19:30:36.130Z,-73
2019-04-03T19:33:05.421Z,-73
2019-04-03T19:35:33.179Z,-73
2019-04-03T19:38:00.982Z,-73
2019-04-03T19:40:28.752Z,-74
2019-04-03T19:42:56.585Z,-71
2019-04-03T19:45:24.377Z,-74
2019-04-03T19:47:54.519Z,-73
2019-04-03T19:50:21.860Z,-71
2019-04-03T19:52:52.688Z,-73
2019-04-03T19:55:23.232Z,-72
2019-04-03T19:57:50.196Z,-73
2019-04-03T20:00:19.408Z,-73
2019-04-03T20:02:47.188Z,-72
2019-04-03T20:05:14.970Z,-73
2019-04-03T20:07:42.746Z,-72
2019-04-03T20:10:10.763Z,-73
2019-04-03T20:12:38.576Z,-71
2019-04-03T20:15:08.044Z,-72
2019-04-03T20:17:35.800Z,-74
2019-04-03T20:20:03.903Z,-73
2019-04-03T20:22:31.718Z,-73
2019-04-03T20:25:00.587Z,-73
2019-04-03T20:27:28.821Z,-72
2019-04-03T20:29:56.682Z,-72
2019-04-03T20:32:24.454Z,-74
2019-04-03T20:34:52.212Z,-71
2019-04-03T20:37:20.104Z,-73
2019-04-03T20:39:48.179Z,-72
2019-04-03T20:42:15.987Z,-71
2019-04-03T20:44:43.744Z,-76
2019-04-03T20:47:11.515Z,-74
2019-04-03T20:49:39.289Z,-74
2019-04-03T20:52:07.026Z,-71
2019-04-03T20:54:34.789Z,-73
2019-04-03T20:57:03.191Z,-70
2019-04-03T20:59:32.953Z,-74
2019-04-03T21:02:00.753Z,-73
2019-04-03T21:04:29.845Z,-74
2019-04-03T21:06:57.634Z,-77
2019-04-03T21:09:25.396Z,-74
2019-04-03T21:11:53.213Z,-74
2019-04-03T21:14:21.771Z,-73
2019-04-03T21:16:49.515Z,-73
2019-04-03T21:19:21.233Z,-74
2019-04-03T21:21:48.035Z,-74
2019-04-03T21:24:18.038Z,-75
2019-04-03T21:26:45.805Z,-76
2019-04-03T21:29:16.658Z,-77
2019-04-03T21:31:43.995Z,-73
2019-04-03T21:34:11.726Z,-75
2019-04-03T21:36:40.004Z,-74
2019-04-03T21:39:07.783Z,-72
2019-04-03T21:41:35.567Z,-72
2019-04-03T21:44:04.119Z,-74
2019-04-03T21:46:31.859Z,-75
2019-04-03T21:48:59.839Z,-72
2019-04-03T21:51:28.927Z,-74
2019-04-03T21:53:56.785Z,-74
2019-04-03T21:56:24.766Z,-73
2019-04-03T21:58:52.764Z,-74
2019-04-03T22:01:24.005Z,-74
2019-04-03T22:03:52.038Z,-74
2019-04-03T22:06:19.946Z,-74
2019-04-03T22:08:48.035Z,-73
2019-04-03T22:11:17.607Z,-73
2019-04-03T22:13:45.403Z,-74
2019-04-03T22:16:13.140Z,-72
2019-04-03T22:18:41.107Z,-74
2019-04-03T22:21:08.866Z,-74
2019-04-03T22:23:36.936Z,-74
2019-04-03T22:26:06.253Z,-74
2019-04-03T22:28:36.691Z,-73
2019-04-03T22:31:04.436Z,-73
2019-04-03T22:33:33.006Z,-74
2019-04-03T22:36:03.298Z,-75
2019-04-03T22:38:31.720Z,-74
2019-04-03T22:40:59.492Z,-72
2019-04-03T22:43:27.242Z,-73
2019-04-03T22:45:55.202Z,-73
2019-04-03T22:48:23.112Z,-74
2019-04-03T22:50:51.026Z,-74
2019-04-03T22:53:18.791Z,-76
2019-04-03T22:55:47.044Z,-74
2019-04-03T22:58:14.825Z,-76
2019-04-03T23:00:42.563Z,-72
2019-04-03T23:03:13.305Z,-74
2019-04-03T23:05:40.447Z,-65
2019-04-03T23:08:08.510Z,-67
2019-04-03T23:10:36.432Z,-66
2019-04-03T23:13:05.215Z,-66
2019-04-03T23:15:33.096Z,-68
2019-04-03T23:18:00.896Z,-65
2019-04-03T23:20:28.671Z,-65
2019-04-03T23:22:57.508Z,-66
2019-04-03T23:25:25.336Z,-67
2019-04-03T23:27:53.111Z,-65
2019-04-03T23:30:20.899Z,-69
2019-04-03T23:32:48.677Z,-66
2019-04-03T23:35:16.451Z,-66
2019-04-03T23:37:44.233Z,-66
2019-04-03T23:40:12.241Z,-65
2019-04-03T23:42:40.268Z,-69
2019-04-03T23:45:08.131Z,-66
2019-04-03T23:47:35.915Z,-67
2019-04-03T23:50:04.520Z,-70
2019-04-03T23:52:32.279Z,-66
2019-04-03T23:55:00.071Z,-66
2019-04-03T23:57:28.100Z,-68
2019-04-03T23:59:55.930Z,-66
